createdAt,value
2022-08-20T00:00:47.874Z,46.35
2022-08-20T00:03:28.118Z,46.53
2022-08-20T00:06:04.513Z,46.80
2022-08-20T00:08:35.613Z,46.80
2022-08-20T00:11:06.886Z,47.01
2022-08-20T00:13:43.232Z,46.60
2022-08-20T00:16:15.839Z,47.01
2022-08-20T00:18:49.357Z,46.98
2022-08-20T00:21:23.278Z,47.10
2022-08-20T00:23:57.311Z,46.76
2022-08-20T00:26:29.149Z,46.98
2022-08-20T00:28:59.871Z,46.45
2022-08-20T00:31:31.037Z,46.61
2022-08-20T00:34:03.740Z,46.57
2022-08-20T00:36:34.397Z,46.57
2022-08-20T00:39:05.646Z,46.52
2022-08-20T00:41:36.876Z,46.61
2022-08-20T00:44:15.978Z,46.52
2022-08-20T00:46:48.651Z,46.73
2022-08-20T00:49:25.524Z,47.33
2022-08-20T00:52:02.721Z,47.04
2022-08-20T00:54:41.203Z,46.63
2022-08-20T00:57:19.503Z,46.64
2022-08-20T00:59:52.858Z,47.22
2022-08-20T01:02:28.656Z,46.87
2022-08-20T01:05:01.706Z,47.25
2022-08-20T01:07:35.201Z,47.43
2022-08-20T01:10:11.934Z,46.84
2022-08-20T01:12:46.797Z,46.90
2022-08-20T01:15:22.175Z,46.73
2022-08-20T01:18:04.346Z,47.37
2022-08-20T01:20:43.741Z,46.88
2022-08-20T01:23:30.593Z,46.92
2022-08-20T01:26:09.588Z,47.62
2022-08-20T01:28:45.208Z,47.57
2022-08-20T01:31:20.180Z,47.08
2022-08-20T01:33:54.442Z,46.98
2022-08-20T01:36:30.957Z,46.93
2022-08-20T01:39:02.450Z,47.40
2022-08-20T01:42:07.929Z,47.55
2022-08-20T01:44:41.750Z,47.13
2022-08-20T01:47:17.661Z,47.21
2022-08-20T01:49:52.850Z,47.26
2022-08-20T01:52:36.018Z,47.71
2022-08-20T01:55:08.276Z,47.30
2022-08-20T01:57:41.629Z,46.95
2022-08-20T02:00:20.498Z,47.09
2022-08-20T02:02:53.304Z,47.62
2022-08-20T02:05:24.631Z,47.29
2022-08-20T02:08:01.368Z,47.73
2022-08-20T02:10:33.576Z,47.23
2022-08-20T02:13:10.676Z,47.18
2022-08-20T02:15:43.231Z,47.91
2022-08-20T02:18:16.963Z,47.26
2022-08-20T02:20:49.239Z,47.84
2022-08-20T02:23:19.892Z,47.36
2022-08-20T02:25:52.088Z,47.44
2022-08-20T02:28:26.748Z,47.98
2022-08-20T02:30:57.828Z,47.80
2022-08-20T02:33:28.512Z,47.54
2022-08-20T02:36:00.733Z,47.95
2022-08-20T02:38:31.064Z,47.56
2022-08-20T02:41:01.660Z,47.66
2022-08-20T02:43:34.637Z,47.65
2022-08-20T02:46:24.297Z,47.74
2022-08-20T02:48:55.091Z,47.11
2022-08-20T02:51:30.344Z,47.35
2022-08-20T02:54:02.061Z,47.27
2022-08-20T02:56:33.420Z,47.05
2022-08-20T02:59:06.510Z,46.89
2022-08-20T03:01:38.328Z,46.97
2022-08-20T03:04:08.781Z,47.23
2022-08-20T03:06:39.203Z,47.63
2022-08-20T03:09:09.855Z,47.07
2022-08-20T03:11:41.273Z,47.14
2022-08-20T03:14:13.775Z,47.17
2022-08-20T03:16:43.965Z,47.05
2022-08-20T03:19:18.619Z,46.84
2022-08-20T03:21:49.538Z,46.84
2022-08-20T03:24:20.353Z,46.81
2022-08-20T03:26:51.852Z,46.72
2022-08-20T03:29:24.716Z,46.45
2022-08-20T03:31:55.359Z,46.28
2022-08-20T03:34:26.333Z,46.47
2022-08-20T03:36:57.563Z,46.21
2022-08-20T03:39:28.915Z,46.72
2022-08-20T03:41:59.554Z,46.70
2022-08-20T03:44:32.315Z,46.25
2022-08-20T03:47:03.046Z,46.65
2022-08-20T03:49:34.020Z,46.26
2022-08-20T03:52:04.598Z,46.21
2022-08-20T03:54:35.989Z,45.92
2022-08-20T03:57:12.520Z,46.17
2022-08-20T03:59:47.080Z,46.12
2022-08-20T04:02:25.525Z,46.03
2022-08-20T04:04:56.436Z,46.53
2022-08-20T04:07:29.419Z,46.22
2022-08-20T04:10:00.363Z,46.01
2022-08-20T04:12:30.735Z,45.99
2022-08-20T04:15:03.242Z,45.85
2022-08-20T04:17:34.873Z,46.17
2022-08-20T04:20:09.539Z,45.65
2022-08-20T04:22:42.371Z,46.07
2022-08-20T04:25:36.107Z,46.39
2022-08-20T04:28:14.146Z,45.90
2022-08-20T04:30:47.488Z,46.36
2022-08-20T04:33:35.339Z,45.85
2022-08-20T04:36:07.576Z,46.04
2022-08-20T04:38:47.791Z,46.29
2022-08-20T04:41:21.155Z,46.15
2022-08-20T04:43:56.544Z,46.21
2022-08-20T04:46:33.096Z,46.34
2022-08-20T04:49:04.536Z,45.63
2022-08-20T04:51:35.379Z,45.91
2022-08-20T04:54:07.887Z,46.24
2022-08-20T04:56:40.231Z,45.73
2022-08-20T04:59:11.659Z,46.17
2022-08-20T05:01:44.803Z,46.48
2022-08-20T05:04:15.362Z,45.93
2022-08-20T05:06:46.906Z,46.32
2022-08-20T05:09:17.318Z,46.09
2022-08-20T05:11:48.393Z,46.52
2022-08-20T05:14:19.281Z,45.83
2022-08-20T05:16:57.084Z,46.46
2022-08-20T05:19:30.292Z,46.11
2022-08-20T05:22:01.240Z,45.96
2022-08-20T05:24:32.037Z,45.93
2022-08-20T05:27:04.167Z,46.03
2022-08-20T05:29:35.272Z,45.95
2022-08-20T05:32:09.039Z,45.94
2022-08-20T05:34:40.112Z,45.76
2022-08-20T05:37:12.490Z,46.17
2022-08-20T05:39:43.613Z,45.77
2022-08-20T05:42:13.885Z,46.06
2022-08-20T05:44:47.648Z,46.35
2022-08-20T05:47:20.669Z,45.97
2022-08-20T05:49:52.708Z,46.52
2022-08-20T05:52:23.656Z,46.49
2022-08-20T05:54:54.375Z,45.87
2022-08-20T05:57:24.768Z,46.07
2022-08-20T05:59:55.930Z,45.91
2022-08-20T06:02:44.480Z,46.31
2022-08-20T06:05:14.620Z,46.66
2022-08-20T06:07:47.436Z,46.56
2022-08-20T06:10:18.425Z,46.42
2022-08-20T06:12:49.844Z,46.17
2022-08-20T06:15:20.418Z,46.74
2022-08-20T06:17:58.103Z,46.38
2022-08-20T06:20:30.667Z,46.34
2022-08-20T06:23:01.676Z,46.34
2022-08-20T06:25:37.451Z,46.45
2022-08-20T06:28:09.722Z,46.86
2022-08-20T06:30:41.421Z,46.97
2022-08-20T06:33:14.147Z,46.44
2022-08-20T06:35:45.244Z,46.66
2022-08-20T06:38:16.083Z,47.02
2022-08-20T06:40:47.309Z,46.92
2022-08-20T06:43:19.378Z,46.95
2022-08-20T06:45:50.602Z,46.30
2022-08-20T06:48:23.696Z,46.47
2022-08-20T06:50:54.607Z,47.03
2022-08-20T06:53:26.489Z,46.70
2022-08-20T06:56:00.360Z,46.21
2022-08-20T06:58:36.689Z,46.38
2022-08-20T07:01:10.356Z,46.58
2022-08-20T07:03:54.385Z,46.19
2022-08-20T07:06:27.421Z,46.54
2022-08-20T07:08:58.851Z,46.62
2022-08-20T07:11:29.650Z,46.04
2022-08-20T07:14:00.577Z,46.63
2022-08-20T07:16:31.547Z,46.04
2022-08-20T07:19:04.507Z,46.11
2022-08-20T07:21:34.974Z,46.06
2022-08-20T07:24:06.504Z,46.29
2022-08-20T07:26:37.389Z,45.97
2022-08-20T07:29:08.063Z,45.76
2022-08-20T07:31:55.191Z,46.06
2022-08-20T07:34:29.003Z,45.96
2022-08-20T07:37:03.371Z,46.36
2022-08-20T07:39:36.016Z,45.58
2022-08-20T07:42:07.736Z,45.58
2022-08-20T07:44:39.934Z,45.63
2022-08-20T07:47:10.694Z,46.07
2022-08-20T07:49:43.626Z,45.71
2022-08-20T07:52:15.017Z,45.57
2022-08-20T07:54:45.469Z,45.46
2022-08-20T07:57:17.926Z,45.67
2022-08-20T07:59:49.311Z,45.93
2022-08-20T08:02:20.072Z,45.79
2022-08-20T08:04:54.208Z,45.40
2022-08-20T08:07:27.013Z,45.73
2022-08-20T08:09:59.731Z,45.32
2022-08-20T08:12:41.760Z,45.68
2022-08-20T08:15:17.929Z,45.50
2022-08-20T08:17:53.303Z,45.25
2022-08-20T08:20:26.437Z,45.78
2022-08-20T08:22:58.134Z,45.46
2022-08-20T08:25:29.089Z,45.60
2022-08-20T08:28:01.051Z,45.48
2022-08-20T08:30:32.085Z,45.45
2022-08-20T08:33:30.807Z,45.16
2022-08-20T08:36:06.910Z,45.22
2022-08-20T08:38:41.572Z,45.42
2022-08-20T08:41:21.461Z,45.24
2022-08-20T08:43:56.047Z,45.62
2022-08-20T08:46:30.225Z,45.01
2022-08-20T08:49:04.115Z,45.36
2022-08-20T08:51:43.207Z,45.16
2022-08-20T08:54:19.230Z,45.17
2022-08-20T08:56:50.693Z,44.78
2022-08-20T08:59:24.221Z,45.24
2022-08-20T09:02:00.065Z,44.81
2022-08-20T09:04:36.199Z,45.33
2022-08-20T09:07:16.820Z,45.13
2022-08-20T09:09:50.008Z,45.46
2022-08-20T09:12:28.315Z,45.32
2022-08-20T09:14:59.178Z,45.07
2022-08-20T09:17:29.779Z,44.95
2022-08-20T09:20:00.216Z,45.14
2022-08-20T09:22:33.968Z,45.04
2022-08-20T09:25:04.869Z,45.08
2022-08-20T09:27:35.096Z,45.05
2022-08-20T09:30:08.892Z,45.33
2022-08-20T09:32:39.789Z,45.24
2022-08-20T09:35:11.564Z,45.34
2022-08-20T09:37:44.786Z,44.90
2022-08-20T09:40:21.063Z,45.30
2022-08-20T09:42:53.116Z,45.49
2022-08-20T09:45:24.956Z,45.51
2022-08-20T09:47:57.161Z,45.42
2022-08-20T09:50:31.047Z,45.34
2022-08-20T09:53:06.570Z,45.21
2022-08-20T09:55:41.409Z,45.04
2022-08-20T09:58:22.506Z,44.81
2022-08-20T10:00:54.012Z,45.17
2022-08-20T10:03:24.826Z,44.93
2022-08-20T10:05:55.501Z,45.16
2022-08-20T10:08:28.321Z,44.56
2022-08-20T10:10:58.888Z,44.69
2022-08-20T10:13:29.980Z,44.67
2022-08-20T10:16:00.986Z,45.02
2022-08-20T10:18:30.887Z,44.95
2022-08-20T10:21:01.175Z,44.63
2022-08-20T10:23:33.966Z,45.08
2022-08-20T10:26:04.951Z,45.18
2022-08-20T10:28:43.861Z,44.65
2022-08-20T10:31:16.051Z,45.11
2022-08-20T10:33:46.822Z,44.59
2022-08-20T10:36:20.779Z,44.77
2022-08-20T10:38:53.132Z,44.72
2022-08-20T10:41:23.991Z,44.60
2022-08-20T10:43:55.343Z,44.78
2022-08-20T10:46:26.644Z,44.37
2022-08-20T10:48:57.897Z,44.62
2022-08-20T10:51:32.869Z,44.65
2022-08-20T10:54:06.322Z,45.00
2022-08-20T10:56:43.039Z,44.74
2022-08-20T10:59:13.832Z,44.76
2022-08-20T11:01:45.229Z,45.00
2022-08-20T11:04:15.759Z,44.36
2022-08-20T11:06:46.661Z,45.03
2022-08-20T11:09:19.363Z,44.57
2022-08-20T11:11:50.050Z,44.28
2022-08-20T11:14:20.979Z,44.60
2022-08-20T11:16:52.409Z,44.78
2022-08-20T11:19:23.904Z,44.64
2022-08-20T11:21:54.606Z,44.33
2022-08-20T11:24:27.641Z,44.61
2022-08-20T11:26:58.555Z,44.41
2022-08-20T11:29:33.792Z,44.62
2022-08-20T11:32:05.290Z,44.47
2022-08-20T11:34:37.140Z,44.74
2022-08-20T11:37:08.719Z,45.01
2022-08-20T11:39:42.145Z,44.55
2022-08-20T11:42:13.702Z,44.55
2022-08-20T11:44:43.728Z,44.99
2022-08-20T11:47:25.998Z,44.23
2022-08-20T11:50:01.453Z,44.34
2022-08-20T11:52:32.822Z,44.66
2022-08-20T11:55:05.817Z,44.54
2022-08-20T11:57:39.968Z,44.76
2022-08-20T12:00:17.248Z,44.58
2022-08-20T12:02:47.577Z,44.47
2022-08-20T12:05:18.455Z,44.58
2022-08-20T12:07:49.542Z,44.68
2022-08-20T12:10:21.500Z,44.64
2022-08-20T12:12:52.733Z,44.42
2022-08-20T12:15:24.149Z,44.96
2022-08-20T12:17:54.642Z,44.36
2022-08-20T12:20:27.017Z,44.79
2022-08-20T12:22:59.434Z,45.07
2022-08-20T12:25:31.886Z,45.04
2022-08-20T12:28:02.010Z,44.34
2022-08-20T12:30:33.994Z,44.59
2022-08-20T12:33:04.496Z,45.07
2022-08-20T12:35:35.557Z,44.48
2022-08-20T12:38:07.788Z,44.52
2022-08-20T12:40:40.171Z,44.67
2022-08-20T12:43:11.406Z,44.91
2022-08-20T12:45:42.114Z,44.75
2022-08-20T12:48:15.623Z,44.70
2022-08-20T12:50:47.855Z,44.84
2022-08-20T12:53:18.874Z,44.92
2022-08-20T12:55:51.675Z,44.75
2022-08-20T12:58:22.280Z,44.86
2022-08-20T13:00:53.182Z,44.33
2022-08-20T13:03:23.529Z,44.84
2022-08-20T13:05:54.849Z,44.26
2022-08-20T13:08:25.802Z,44.24
2022-08-20T13:10:58.500Z,43.88
2022-08-20T13:13:29.636Z,44.05
2022-08-20T13:16:00.434Z,44.51
2022-08-20T13:18:31.216Z,43.89
2022-08-20T13:21:02.582Z,44.35
2022-08-20T13:23:33.518Z,44.21
2022-08-20T13:26:06.213Z,43.73
2022-08-20T13:28:37.202Z,44.06
2022-08-20T13:31:08.155Z,44.01
2022-08-20T13:33:38.965Z,43.64
2022-08-20T13:36:10.630Z,43.68
2022-08-20T13:38:41.377Z,44.22
2022-08-20T13:41:14.680Z,44.46
2022-08-20T13:43:45.241Z,44.34
2022-08-20T13:46:16.429Z,44.50
2022-08-20T13:48:47.273Z,44.42
2022-08-20T13:51:19.198Z,44.67
2022-08-20T13:53:51.505Z,44.47
2022-08-20T13:56:25.118Z,44.21
2022-08-20T13:58:55.286Z,44.16
2022-08-20T14:01:25.902Z,44.17
2022-08-20T14:03:56.116Z,44.86
2022-08-20T14:06:27.799Z,44.22
2022-08-20T14:08:58.089Z,44.69
2022-08-20T14:11:31.626Z,44.94
2022-08-20T14:14:03.292Z,44.09
2022-08-20T14:16:35.761Z,44.58
2022-08-20T14:19:07.494Z,44.24
2022-08-20T14:21:38.330Z,44.99
2022-08-20T14:24:10.057Z,44.34
2022-08-20T14:26:42.237Z,44.82
2022-08-20T14:29:13.318Z,45.05
2022-08-20T14:31:43.333Z,44.51
2022-08-20T14:34:13.764Z,44.39
2022-08-20T14:36:44.299Z,44.67
2022-08-20T14:39:20.439Z,44.79
2022-08-20T14:41:52.868Z,44.62
2022-08-20T14:44:23.173Z,44.80
2022-08-20T14:46:53.608Z,45.05
2022-08-20T14:49:24.542Z,45.26
2022-08-20T14:51:55.102Z,44.96
2022-08-20T14:54:25.268Z,45.02
2022-08-20T14:57:02.169Z,45.41
2022-08-20T14:59:32.998Z,45.34
2022-08-20T15:02:04.470Z,45.21
2022-08-20T15:04:35.576Z,45.14
2022-08-20T15:07:11.135Z,45.47
2022-08-20T15:09:43.995Z,45.10
2022-08-20T15:12:16.507Z,44.87
2022-08-20T15:14:48.202Z,44.73
2022-08-20T15:17:24.373Z,45.29
2022-08-20T15:19:56.170Z,45.56
2022-08-20T15:22:27.606Z,45.68
2022-08-20T15:24:58.615Z,45.23
2022-08-20T15:27:34.257Z,45.76
2022-08-20T15:30:05.794Z,45.17
2022-08-20T15:32:36.495Z,45.11
2022-08-20T15:35:10.893Z,45.23
2022-08-20T15:37:44.855Z,45.42
2022-08-20T15:40:19.099Z,45.35
2022-08-20T15:42:52.306Z,45.35
2022-08-20T15:45:23.320Z,45.50
2022-08-20T15:48:03.791Z,45.98
2022-08-20T15:51:03.391Z,45.49
2022-08-20T15:53:45.457Z,46.04
2022-08-20T15:56:28.588Z,45.86
2022-08-20T15:59:28.984Z,45.95
2022-08-20T16:02:25.650Z,45.56
2022-08-20T16:05:22.209Z,45.33
2022-08-20T16:08:09.962Z,45.85
2022-08-20T16:10:56.165Z,45.73
2022-08-20T16:13:40.650Z,45.39
2022-08-20T16:16:24.692Z,45.83
2022-08-20T16:18:58.758Z,45.43
2022-08-20T16:21:34.885Z,45.50
2022-08-20T16:24:07.366Z,45.78
2022-08-20T16:27:02.903Z,45.78
2022-08-20T16:29:49.292Z,45.96
2022-08-20T16:32:40.500Z,45.86
2022-08-20T16:35:30.080Z,46.07
2022-08-20T16:38:21.025Z,45.69
2022-08-20T16:40:58.480Z,46.27
2022-08-20T16:43:36.816Z,46.07
2022-08-20T16:46:19.544Z,45.48
2022-08-20T16:49:14.594Z,45.60
2022-08-20T16:51:52.332Z,46.00
2022-08-20T16:54:30.101Z,45.46
2022-08-20T16:57:06.643Z,45.80
2022-08-20T16:59:58.188Z,46.11
2022-08-20T17:02:29.705Z,46.08
2022-08-20T17:05:06.874Z,45.60
2022-08-20T17:07:51.459Z,45.60
2022-08-20T17:10:28.534Z,46.30
2022-08-20T17:13:04.132Z,45.75
2022-08-20T17:15:38.370Z,46.03
2022-08-20T17:18:25.609Z,45.88
2022-08-20T17:21:03.859Z,46.21
2022-08-20T17:23:55.316Z,46.10
2022-08-20T17:26:35.758Z,46.36
2022-08-20T17:29:16.848Z,46.05
2022-08-20T17:31:50.991Z,46.38
2022-08-20T17:34:25.037Z,46.42
2022-08-20T17:37:02.157Z,46.39
2022-08-20T17:39:33.779Z,46.14
2022-08-20T17:42:13.527Z,46.09
2022-08-20T17:44:51.323Z,45.89
2022-08-20T17:47:28.436Z,46.00
2022-08-20T17:50:05.371Z,46.31
2022-08-20T17:52:50.155Z,46.33
2022-08-20T17:55:22.251Z,45.84
2022-08-20T17:58:01.727Z,45.73
2022-08-20T18:00:33.228Z,45.83
2022-08-20T18:03:17.781Z,45.52
2022-08-20T18:05:59.615Z,45.59
2022-08-20T18:08:44.532Z,45.85
2022-08-20T18:11:27.897Z,46.15
2022-08-20T18:14:21.845Z,46.21
2022-08-20T18:17:15.811Z,46.45
2022-08-20T18:20:21.514Z,46.12
2022-08-20T18:22:59.994Z,46.25
2022-08-20T18:25:39.305Z,46.21
2022-08-20T18:28:19.147Z,46.98
2022-08-20T18:30:58.486Z,46.90
2022-08-20T18:33:35.998Z,46.69
2022-08-20T18:36:15.050Z,46.75
2022-08-20T18:39:00.030Z,46.83
2022-08-20T18:41:36.874Z,46.61
2022-08-20T18:44:28.970Z,46.45
2022-08-20T18:47:03.608Z,46.75
2022-08-20T18:49:38.669Z,46.72
2022-08-20T18:52:18.414Z,47.24
2022-08-20T18:54:55.261Z,46.67
2022-08-20T18:57:40.530Z,46.81
2022-08-20T19:00:16.653Z,47.32
2022-08-20T19:03:01.795Z,47.26
2022-08-20T19:05:43.560Z,47.38
2022-08-20T19:08:19.263Z,46.90
2022-08-20T19:10:58.749Z,47.19
2022-08-20T19:14:02.197Z,47.01
2022-08-20T19:16:42.806Z,46.87
2022-08-20T19:19:23.989Z,47.21
2022-08-20T19:21:58.535Z,46.98
2022-08-20T19:24:36.685Z,47.06
2022-08-20T19:27:13.094Z,47.33
2022-08-20T19:29:56.722Z,47.14
2022-08-20T19:32:33.624Z,47.58
2022-08-20T19:35:09.234Z,47.43
2022-08-20T19:37:51.530Z,47.83
2022-08-20T19:40:28.795Z,47.92
2022-08-20T19:43:02.903Z,47.93
2022-08-20T19:45:44.000Z,47.73
2022-08-20T19:48:51.035Z,47.35
2022-08-20T19:51:34.431Z,47.88
2022-08-20T19:54:22.558Z,48.28
2022-08-20T19:56:53.905Z,48.10
2022-08-20T19:59:25.903Z,48.06
2022-08-20T20:02:03.062Z,48.17
2022-08-20T20:04:55.730Z,47.83
2022-08-20T20:07:31.843Z,48.11
2022-08-20T20:10:02.081Z,47.91
2022-08-20T20:12:36.668Z,47.91
2022-08-20T20:15:10.284Z,48.28
2022-08-20T20:17:45.027Z,48.03
2022-08-20T20:20:27.927Z,48.25
2022-08-20T20:23:06.438Z,48.45
2022-08-20T20:25:48.642Z,48.35
2022-08-20T20:28:25.074Z,48.49
2022-08-20T20:30:56.942Z,48.52
2022-08-20T20:33:40.897Z,47.96
2022-08-20T20:36:18.538Z,48.05
2022-08-20T20:38:59.311Z,48.32
2022-08-20T20:41:32.427Z,47.81
2022-08-20T20:44:07.142Z,48.04
2022-08-20T20:46:41.321Z,48.12
2022-08-20T20:49:26.656Z,48.59
2022-08-20T20:52:02.502Z,48.16
2022-08-20T20:54:43.086Z,48.60
2022-08-20T20:57:38.039Z,48.73
2022-08-20T21:00:14.460Z,48.03
2022-08-20T21:02:45.648Z,47.97
2022-08-20T21:05:23.441Z,48.65
2022-08-20T21:07:59.715Z,48.45
2022-08-20T21:10:35.363Z,48.64
2022-08-20T21:13:06.224Z,48.00
2022-08-20T21:15:39.093Z,48.05
2022-08-20T21:18:12.146Z,48.53
2022-08-20T21:20:45.698Z,48.07
2022-08-20T21:23:16.689Z,48.58
2022-08-20T21:25:47.971Z,48.10
2022-08-20T21:28:19.404Z,48.17
2022-08-20T21:30:49.781Z,47.77
2022-08-20T21:33:29.304Z,48.16
2022-08-20T21:36:02.290Z,48.05
2022-08-20T21:38:33.074Z,48.36
2022-08-20T21:41:04.401Z,47.73
2022-08-20T21:43:38.567Z,47.65
2022-08-20T21:46:12.790Z,48.21
2022-08-20T21:48:48.051Z,48.03
2022-08-20T21:51:21.834Z,48.44
2022-08-20T21:53:54.138Z,48.29
2022-08-20T21:56:24.700Z,47.97
2022-08-20T21:58:55.765Z,47.99
2022-08-20T22:01:28.399Z,48.31
2022-08-20T22:03:59.097Z,48.31
2022-08-20T22:06:32.757Z,47.60
2022-08-20T22:09:04.132Z,48.25
2022-08-20T22:11:35.438Z,48.16
2022-08-20T22:14:10.959Z,48.00
2022-08-20T22:16:42.979Z,47.92
2022-08-20T22:19:16.713Z,48.37
2022-08-20T22:21:50.104Z,47.61
2022-08-20T22:24:21.207Z,48.07
2022-08-20T22:26:51.404Z,48.00
2022-08-20T22:29:22.121Z,48.05
2022-08-20T22:31:52.615Z,48.11
2022-08-20T22:34:24.534Z,48.05
2022-08-20T22:36:59.700Z,48.09
2022-08-20T22:39:31.077Z,48.25
2022-08-20T22:42:04.970Z,47.70
2022-08-20T22:44:36.375Z,48.25
2022-08-20T22:47:11.297Z,47.62
2022-08-20T22:49:44.903Z,47.58
2022-08-20T22:52:17.700Z,47.58
2022-08-20T22:54:48.764Z,48.36
2022-08-20T22:57:20.431Z,47.80
2022-08-20T22:59:53.257Z,48.49
2022-08-20T23:02:27.168Z,47.90
2022-08-20T23:04:58.715Z,48.04
2022-08-20T23:07:31.874Z,48.04
2022-08-20T23:10:02.615Z,48.16
2022-08-20T23:12:34.155Z,48.65
2022-08-20T23:15:04.857Z,48.41
2022-08-20T23:17:36.463Z,48.90
2022-08-20T23:20:10.231Z,48.50
2022-08-20T23:22:43.345Z,48.77
2022-08-20T23:25:15.290Z,48.75
2022-08-20T23:27:50.258Z,48.51
2022-08-20T23:30:23.021Z,48.82
2022-08-20T23:32:54.533Z,48.93
2022-08-20T23:35:25.364Z,48.77
2022-08-20T23:38:05.132Z,48.39
2022-08-20T23:40:36.843Z,48.40
2022-08-20T23:43:08.948Z,49.03
2022-08-20T23:45:41.980Z,48.94
2022-08-20T23:48:13.322Z,48.92
2022-08-20T23:50:44.899Z,49.05
2022-08-20T23:53:17.812Z,48.73
2022-08-20T23:55:48.423Z,48.68
2022-08-20T23:58:19.235Z,48.76
